Sapporo, Japan
Current Conditions -  °F | °C
As of 9:30 AM on Monday 22 Dec 2014 (Local Time) from RJCC Reporting Station
Few Clouds Few Clouds  
Wind Chill: 10°   Ceiling: Unl
Heat Index: 23°   Visibility: 6mi
Dew Point:   Wind: 15mph
Humidity: 43%   Direction: 250°WSW
Pressure: 29.65"   Gusts: NA
Location:  43.07°N, 141.35°E
Report Text: RJCC 220030Z 25013KT 9999 FEW030 M05/M16 Q1004 RMK 1CU030 A2965
Loading
Personal Weather Stations






























Interactive Weather Map New forecast layout! Learn more

10-Day Weather Forecast

Advertisements
Track Severe Weather on mobile